Time;durP1;ratioP1;P1;durP2;ratioP2;P2;SDS_P1;SDS_P2;PMS_P1;PMS_P2;Temp;Humidity;BMP_temperature;BMP_pressure;BME280_temperature;BME280_humidity;BME280_pressure;Samples;Min_cycle;Max_cycle;Signal;HPM_P1;HPM_P2
2024/01/31 00:01:18;;;;;;;7.00;4.57;;;;;;;;;;5025392;28;20186;-75
2024/01/31 00:03:46;;;;;;;4.70;3.60;;;;;;;;;;5030399;28;20195;-74
2024/01/31 00:06:12;;;;;;;4.97;3.83;;;;;;;;;;5013460;28;20194;-74
2024/01/31 00:08:37;;;;;;;7.30;5.40;;;;;;;;;;5013656;28;20199;-74
2024/01/31 00:11:03;;;;;;;8.73;4.97;;;;;;;;;;5013644;28;20203;-74
2024/01/31 00:13:28;;;;;;;5.67;4.00;;;;;;;;;;5030633;28;20262;-75
2024/01/31 00:15:54;;;;;;;5.93;4.63;;;;;;;;;;5013111;28;20191;-74
2024/01/31 00:18:19;;;;;;;6.23;4.93;;;;;;;;;;5013699;28;20209;-74
2024/01/31 00:20:44;;;;;;;7.03;5.40;;;;;;;;;;5011176;28;20207;-74
2024/01/31 00:23:10;;;;;;;8.30;6.03;;;;;;;;;;5010691;28;20179;-75
2024/01/31 00:25:35;;;;;;;5.93;4.60;;;;;;;;;;5009154;28;20176;-74
2024/01/31 00:28:00;;;;;;;22.30;6.03;;;;;;;;;;5012582;28;20219;-75
2024/01/31 00:30:25;;;;;;;6.27;5.00;;;;;;;;;;5008541;28;20282;-75
2024/01/31 00:32:50;;;;;;;8.27;5.13;;;;;;;;;;5028877;28;20202;-75
2024/01/31 00:35:16;;;;;;;5.87;5.27;;;;;;;;;;5008559;28;20176;-75
2024/01/31 00:37:41;;;;;;;9.27;6.03;;;;;;;;;;5013193;28;20175;-74
2024/01/31 00:40:08;;;;;;;6.93;5.67;;;;;;;;;;5015847;28;20244;-74
2024/01/31 00:42:33;;;;;;;7.33;5.57;;;;;;;;;;5030430;28;20179;-75
2024/01/31 00:44:58;;;;;;;8.50;5.80;;;;;;;;;;5025352;28;20189;-75
2024/01/31 00:47:23;;;;;;;5.77;5.23;;;;;;;;;;5012925;28;20179;-75
2024/01/31 00:49:48;;;;;;;6.30;5.07;;;;;;;;;;5028169;28;20179;-75
2024/01/31 00:52:16;;;;;;;6.80;5.90;;;;;;;;;;5028778;28;20202;-75
2024/01/31 00:54:41;;;;;;;7.43;5.27;;;;;;;;;;5012973;28;20171;-75
2024/01/31 00:57:06;;;;;;;6.87;5.60;;;;;;;;;;5013843;28;20171;-75
2024/01/31 00:59:31;;;;;;;7.47;5.83;;;;;;;;;;5011722;28;20181;-75
2024/01/31 01:01:57;;;;;;;6.53;5.80;;;;;;;;;;5029987;28;20183;-74
2024/01/31 01:04:22;;;;;;;6.60;5.27;;;;;;;;;;5025779;28;20274;-74
2024/01/31 01:06:47;;;;;;;8.87;5.63;;;;;;;;;;5033073;28;20194;-74
2024/01/31 01:09:12;;;;;;;7.83;5.53;;;;;;;;;;5032699;28;20179;-75
2024/01/31 01:11:37;;;;;;;6.50;5.50;;;;;;;;;;5016187;28;20207;-74
2024/01/31 01:14:02;;;;;;;7.80;6.07;;;;;;;;;;5033590;28;20175;-74
2024/01/31 01:16:28;;;;;;;6.20;5.40;;;;;;;;;;5017298;28;20174;-75
2024/01/31 01:18:53;;;;;;;7.20;5.40;;;;;;;;;;5013848;28;20307;-75
2024/01/31 01:21:18;;;;;;;7.43;5.80;;;;;;;;;;5017201;28;20190;-74
2024/01/31 01:23:43;;;;;;;6.43;5.33;;;;;;;;;;5016425;28;20179;-74
2024/01/31 01:26:09;;;;;;;6.60;5.07;;;;;;;;;;5034359;28;20226;-74
2024/01/31 01:28:34;;;;;;;8.50;5.53;;;;;;;;;;5026484;28;20266;-72
2024/01/31 01:30:59;;;;;;;9.77;6.20;;;;;;;;;;5015213;28;20220;-75
2024/01/31 01:33:24;;;;;;;8.10;6.30;;;;;;;;;;5032925;28;20191;-74
2024/01/31 01:35:49;;;;;;;7.30;5.57;;;;;;;;;;5015672;28;20175;-75
2024/01/31 01:38:14;;;;;;;7.23;5.77;;;;;;;;;;5016448;28;20188;-75
2024/01/31 01:40:44;;;;;;;8.97;6.00;;;;;;;;;;5028641;28;20213;-75
2024/01/31 01:43:16;;;;;;;8.37;5.63;;;;;;;;;;5015882;28;20241;-75
2024/01/31 01:45:41;;;;;;;10.73;5.40;;;;;;;;;;5028974;28;20177;-76
2024/01/31 01:48:06;;;;;;;7.87;5.40;;;;;;;;;;5034015;28;20172;-75
2024/01/31 01:50:32;;;;;;;6.60;5.70;;;;;;;;;;5015923;28;20179;-74
2024/01/31 01:52:57;;;;;;;6.97;5.70;;;;;;;;;;5013328;28;20188;-75
2024/01/31 01:55:22;;;;;;;7.17;5.53;;;;;;;;;;5033378;28;20188;-75
2024/01/31 01:57:48;;;;;;;7.23;5.57;;;;;;;;;;5015112;28;20217;-75
2024/01/31 02:00:14;;;;;;;6.90;5.47;;;;;;;;;;5014407;28;20187;-75
2024/01/31 02:02:40;;;;;;;8.07;5.67;;;;;;;;;;5030825;28;20187;-74
2024/01/31 02:05:06;;;;;;;6.90;5.17;;;;;;;;;;5015737;28;20181;-75
2024/01/31 02:07:31;;;;;;;5.87;5.13;;;;;;;;;;5016143;28;20187;-75
2024/01/31 02:09:59;;;;;;;6.00;4.93;;;;;;;;;;5011637;28;20183;-75
2024/01/31 02:12:24;;;;;;;7.07;5.33;;;;;;;;;;5016872;28;20229;-75
2024/01/31 02:14:50;;;;;;;9.60;5.30;;;;;;;;;;5032005;28;20262;-75
2024/01/31 02:17:15;;;;;;;7.90;4.97;;;;;;;;;;5014969;28;20257;-75
2024/01/31 02:19:41;;;;;;;6.63;4.60;;;;;;;;;;5014954;28;20246;-76
2024/01/31 02:22:07;;;;;;;7.73;5.03;;;;;;;;;;5028603;28;20195;-74
2024/01/31 02:24:32;;;;;;;5.23;4.73;;;;;;;;;;5015526;28;20468;-75
2024/01/31 02:26:57;;;;;;;7.53;4.90;;;;;;;;;;5033030;28;20361;-75
2024/01/31 02:29:22;;;;;;;6.70;4.80;;;;;;;;;;5014657;28;20186;-75
2024/01/31 02:31:48;;;;;;;5.97;4.50;;;;;;;;;;5016906;28;20203;-75
2024/01/31 02:34:13;;;;;;;6.03;4.33;;;;;;;;;;5016443;28;20229;-74
2024/01/31 02:36:38;;;;;;;6.80;5.27;;;;;;;;;;5008962;28;20169;-75
2024/01/31 02:39:03;;;;;;;7.07;4.90;;;;;;;;;;5010318;28;20199;-75
2024/01/31 02:41:29;;;;;;;5.37;4.87;;;;;;;;;;5032080;28;20187;-75
2024/01/31 02:43:54;;;;;;;5.87;4.70;;;;;;;;;;5011361;28;20186;-74
2024/01/31 02:46:19;;;;;;;5.33;4.60;;;;;;;;;;5012521;28;20179;-75
2024/01/31 02:48:46;;;;;;;7.23;5.27;;;;;;;;;;5008380;28;20183;-75
2024/01/31 02:51:11;;;;;;;5.27;4.73;;;;;;;;;;5014775;28;20199;-75
2024/01/31 02:53:36;;;;;;;5.53;4.87;;;;;;;;;;5014971;28;20194;-75
2024/01/31 02:56:02;;;;;;;7.13;4.87;;;;;;;;;;5014484;28;20179;-75
2024/01/31 02:58:27;;;;;;;6.23;4.83;;;;;;;;;;5031008;28;20178;-74
2024/01/31 03:00:52;;;;;;;7.33;5.00;;;;;;;;;;5029149;28;20202;-75
2024/01/31 03:03:18;;;;;;;6.33;5.20;;;;;;;;;;5031240;28;20183;-75
2024/01/31 03:05:43;;;;;;;10.93;5.20;;;;;;;;;;5015315;28;20229;-74
2024/01/31 03:08:08;;;;;;;5.97;4.70;;;;;;;;;;5031105;28;20174;-75
2024/01/31 03:10:33;;;;;;;9.13;5.53;;;;;;;;;;5031379;28;20175;-75
2024/01/31 03:12:59;;;;;;;7.00;4.90;;;;;;;;;;5012625;28;20222;-75
2024/01/31 03:15:24;;;;;;;7.53;5.17;;;;;;;;;;5017411;28;20187;-75
2024/01/31 03:17:49;;;;;;;5.80;5.13;;;;;;;;;;5010253;28;20175;-75
2024/01/31 03:20:14;;;;;;;7.57;5.00;;;;;;;;;;5014300;28;20189;-74
2024/01/31 03:22:40;;;;;;;5.67;4.67;;;;;;;;;;5013815;28;20189;-74
2024/01/31 03:25:05;;;;;;;7.17;4.30;;;;;;;;;;5029927;28;20186;-75
2024/01/31 03:27:30;;;;;;;6.60;4.67;;;;;;;;;;5030196;28;20227;-75
2024/01/31 03:30:01;;;;;;;7.33;5.53;;;;;;;;;;5022383;28;20193;-74
2024/01/31 03:32:26;;;;;;;7.13;5.40;;;;;;;;;;5016566;28;20218;-75
2024/01/31 03:34:53;;;;;;;6.27;5.63;;;;;;;;;;5013539;28;20282;-75
2024/01/31 03:37:18;;;;;;;6.53;5.80;;;;;;;;;;5008319;28;20251;-74
2024/01/31 03:39:44;;;;;;;5.47;4.90;;;;;;;;;;5015535;28;20171;-75
2024/01/31 03:42:09;;;;;;;9.87;5.30;;;;;;;;;;5007150;28;20225;-74
2024/01/31 03:44:34;;;;;;;7.07;5.57;;;;;;;;;;5011573;28;20177;-75
2024/01/31 03:46:59;;;;;;;6.03;5.23;;;;;;;;;;5013361;28;20181;-74
2024/01/31 03:49:24;;;;;;;7.07;5.23;;;;;;;;;;5012771;28;20334;-75
2024/01/31 03:51:49;;;;;;;5.57;4.53;;;;;;;;;;5013097;28;20195;-74
2024/01/31 03:54:15;;;;;;;9.00;5.03;;;;;;;;;;5009923;28;20175;-75
2024/01/31 03:56:41;;;;;;;6.50;5.80;;;;;;;;;;5013877;28;20174;-74
2024/01/31 03:59:07;;;;;;;7.80;6.23;;;;;;;;;;5028545;28;20175;-75
2024/01/31 04:01:32;;;;;;;8.30;6.10;;;;;;;;;;5012536;28;20195;-75
2024/01/31 04:03:58;;;;;;;8.13;5.47;;;;;;;;;;5012729;28;20175;-74
2024/01/31 04:06:23;;;;;;;10.13;5.90;;;;;;;;;;5030409;28;20180;-75
2024/01/31 04:08:48;;;;;;;12.17;8.50;;;;;;;;;;5010753;28;20178;-75
2024/01/31 04:11:14;;;;;;;9.40;7.20;;;;;;;;;;5012963;28;20195;-75
2024/01/31 04:13:42;;;;;;;8.03;6.10;;;;;;;;;;5012634;28;20171;-75
2024/01/31 04:16:07;;;;;;;9.70;5.93;;;;;;;;;;5030517;28;20269;-75
2024/01/31 04:18:32;;;;;;;8.87;6.30;;;;;;;;;;5031128;28;20201;-74
2024/01/31 04:20:57;;;;;;;6.63;5.90;;;;;;;;;;5025288;28;20361;-75
2024/01/31 04:23:23;;;;;;;6.63;5.03;;;;;;;;;;5013506;28;20185;-74
2024/01/31 04:25:48;;;;;;;8.87;5.83;;;;;;;;;;5030078;28;20198;-75
2024/01/31 04:28:15;;;;;;;7.40;5.37;;;;;;;;;;5011093;28;20191;-75
2024/01/31 04:30:40;;;;;;;8.47;5.20;;;;;;;;;;5030341;28;20175;-75
2024/01/31 04:33:05;;;;;;;5.83;4.93;;;;;;;;;;5009989;28;20225;-74
2024/01/31 04:35:30;;;;;;;8.33;6.07;;;;;;;;;;5004872;28;20168;-75
2024/01/31 04:37:56;;;;;;;6.90;5.40;;;;;;;;;;5010831;28;20185;-75
2024/01/31 04:40:21;;;;;;;8.63;5.93;;;;;;;;;;5011655;28;20195;-74
2024/01/31 04:42:47;;;;;;;6.10;5.03;;;;;;;;;;5028690;28;20219;-75
2024/01/31 04:45:12;;;;;;;6.17;5.30;;;;;;;;;;5011762;28;20174;-75
2024/01/31 04:47:37;;;;;;;6.70;5.10;;;;;;;;;;5012462;28;20174;-75
2024/01/31 04:50:03;;;;;;;6.47;5.10;;;;;;;;;;5011942;28;20182;-75
2024/01/31 04:52:28;;;;;;;7.40;5.40;;;;;;;;;;5005984;28;20245;-74
2024/01/31 04:54:55;;;;;;;6.63;5.27;;;;;;;;;;5021583;28;20176;-74
2024/01/31 04:57:20;;;;;;;7.33;5.30;;;;;;;;;;5012899;28;20178;-75
2024/01/31 04:59:45;;;;;;;11.30;7.17;;;;;;;;;;5011133;28;20170;-75
2024/01/31 05:02:11;;;;;;;8.83;6.30;;;;;;;;;;5011817;28;20177;-75
2024/01/31 05:04:36;;;;;;;7.37;5.53;;;;;;;;;;5027116;28;20262;-74
2024/01/31 05:07:02;;;;;;;6.37;5.47;;;;;;;;;;5015593;28;20172;-74
2024/01/31 05:09:27;;;;;;;7.23;5.90;;;;;;;;;;5009662;28;20210;-74
2024/01/31 05:11:52;;;;;;;7.97;5.40;;;;;;;;;;5011402;28;20257;-74
2024/01/31 05:14:18;;;;;;;9.07;5.90;;;;;;;;;;5013534;28;20186;-74
2024/01/31 05:16:43;;;;;;;12.50;7.10;;;;;;;;;;5013030;28;20172;-75
2024/01/31 05:19:11;;;;;;;7.50;6.20;;;;;;;;;;5012708;28;20217;-75
2024/01/31 05:21:36;;;;;;;9.10;7.03;;;;;;;;;;5029123;28;21125;-74
2024/01/31 05:24:02;;;;;;;8.10;6.87;;;;;;;;;;5012138;28;20186;-75
2024/01/31 05:26:27;;;;;;;9.90;6.80;;;;;;;;;;5029261;28;20272;-74
2024/01/31 05:28:52;;;;;;;10.40;6.80;;;;;;;;;;5004979;28;20173;-74
2024/01/31 05:31:17;;;;;;;8.20;6.80;;;;;;;;;;5012218;28;20282;-75
2024/01/31 05:33:42;;;;;;;7.83;6.13;;;;;;;;;;5008613;28;20231;-75
2024/01/31 05:36:08;;;;;;;9.90;6.10;;;;;;;;;;5012837;28;20178;-75
2024/01/31 05:38:33;;;;;;;11.70;6.23;;;;;;;;;;5008798;28;20174;-74
2024/01/31 05:40:58;;;;;;;12.50;6.63;;;;;;;;;;5028787;28;20170;-74
2024/01/31 05:43:23;;;;;;;9.53;7.10;;;;;;;;;;5011386;28;20273;-74
2024/01/31 05:45:48;;;;;;;8.27;6.60;;;;;;;;;;5029758;28;20167;-75
2024/01/31 05:48:14;;;;;;;9.50;7.03;;;;;;;;;;5012821;28;20263;-74
2024/01/31 05:50:39;;;;;;;8.70;6.93;;;;;;;;;;5010322;28;20171;-74
2024/01/31 05:53:05;;;;;;;8.47;7.17;;;;;;;;;;5014957;28;20258;-74
2024/01/31 05:55:30;;;;;;;10.20;7.97;;;;;;;;;;5013955;28;20180;-75
2024/01/31 05:57:55;;;;;;;14.97;9.97;;;;;;;;;;5013804;28;20174;-69
2024/01/31 06:00:20;;;;;;;17.47;12.80;;;;;;;;;;5030602;28;20208;-71
2024/01/31 06:02:45;;;;;;;14.73;9.73;;;;;;;;;;5034032;28;20366;-71
2024/01/31 06:05:11;;;;;;;14.97;9.50;;;;;;;;;;5015569;28;20214;-71
2024/01/31 06:07:36;;;;;;;10.77;8.20;;;;;;;;;;5016178;28;20210;-70
2024/01/31 06:10:01;;;;;;;11.17;7.63;;;;;;;;;;5032394;28;20224;-72
2024/01/31 06:12:26;;;;;;;9.83;7.77;;;;;;;;;;5015622;28;20267;-72
2024/01/31 06:14:52;;;;;;;9.23;7.57;;;;;;;;;;5024778;28;20185;-72
2024/01/31 06:17:17;;;;;;;11.03;7.47;;;;;;;;;;5031204;28;20171;-72
2024/01/31 06:19:43;;;;;;;13.30;7.27;;;;;;;;;;5032465;28;20180;-71
2024/01/31 06:22:08;;;;;;;12.10;7.63;;;;;;;;;;5013480;28;20174;-71
2024/01/31 06:24:33;;;;;;;11.43;7.90;;;;;;;;;;5033205;28;20202;-71
2024/01/31 06:26:59;;;;;;;9.10;6.77;;;;;;;;;;5029786;28;20222;-71
2024/01/31 06:29:24;;;;;;;9.27;6.50;;;;;;;;;;5032685;28;20186;-71
2024/01/31 06:31:51;;;;;;;8.70;7.77;;;;;;;;;;5026724;28;20194;-71
2024/01/31 06:34:17;;;;;;;8.20;6.87;;;;;;;;;;5027201;28;20172;-71
2024/01/31 06:36:42;;;;;;;8.57;6.90;;;;;;;;;;5015664;28;20167;-71
2024/01/31 06:39:07;;;;;;;11.83;7.40;;;;;;;;;;5012062;28;20482;-71
2024/01/31 06:41:35;;;;;;;10.10;6.63;;;;;;;;;;5027537;28;20186;-71
2024/01/31 06:44:00;;;;;;;9.37;7.67;;;;;;;;;;5014746;28;20179;-71
2024/01/31 06:46:25;;;;;;;10.23;7.93;;;;;;;;;;5015325;28;20185;-71
2024/01/31 06:48:50;;;;;;;10.63;7.53;;;;;;;;;;5014888;28;20175;-71
2024/01/31 06:51:15;;;;;;;7.57;6.70;;;;;;;;;;5014311;28;20249;-71
2024/01/31 06:53:41;;;;;;;9.10;6.60;;;;;;;;;;5030971;28;20232;-71
2024/01/31 06:56:06;;;;;;;9.63;7.60;;;;;;;;;;5030798;28;20207;-72
2024/01/31 06:58:32;;;;;;;9.30;8.30;;;;;;;;;;5032523;28;20229;-71
2024/01/31 07:01:01;;;;;;;9.03;6.63;;;;;;;;;;5014085;28;20176;-71
2024/01/31 07:03:26;;;;;;;10.73;7.67;;;;;;;;;;5015330;28;20183;-71
2024/01/31 07:05:51;;;;;;;7.87;6.57;;;;;;;;;;5015092;28;20198;-71
2024/01/31 07:08:16;;;;;;;8.73;5.87;;;;;;;;;;5026764;28;20290;-71
2024/01/31 07:10:42;;;;;;;6.87;6.03;;;;;;;;;;5014529;28;20253;-71
2024/01/31 07:13:07;;;;;;;7.57;5.63;;;;;;;;;;5032205;28;20194;-71
2024/01/31 07:15:32;;;;;;;7.40;6.47;;;;;;;;;;5032087;28;20171;-71
2024/01/31 07:17:57;;;;;;;10.13;7.17;;;;;;;;;;5030794;28;20194;-71
2024/01/31 07:20:22;;;;;;;8.67;5.63;;;;;;;;;;5020734;28;20250;-71
2024/01/31 07:22:48;;;;;;;8.40;5.63;;;;;;;;;;5028211;28;20201;-72
2024/01/31 07:25:14;;;;;;;8.03;6.20;;;;;;;;;;5030028;28;20187;-71
2024/01/31 07:27:40;;;;;;;8.10;6.43;;;;;;;;;;5029091;28;20234;-71
2024/01/31 07:30:12;;;;;;;8.27;6.13;;;;;;;;;;5024579;28;20180;-71
2024/01/31 07:32:37;;;;;;;7.77;6.97;;;;;;;;;;5028866;28;20194;-71
2024/01/31 07:35:03;;;;;;;10.30;6.70;;;;;;;;;;5030648;28;20179;-71
2024/01/31 07:37:28;;;;;;;14.57;9.53;;;;;;;;;;5012232;28;20176;-71
2024/01/31 07:39:56;;;;;;;8.33;7.37;;;;;;;;;;5010029;28;20170;-72
2024/01/31 07:42:21;;;;;;;12.47;7.90;;;;;;;;;;5024450;28;20202;-71
2024/01/31 07:44:46;;;;;;;10.77;7.20;;;;;;;;;;5026700;28;20175;-71
2024/01/31 07:47:11;;;;;;;10.63;7.53;;;;;;;;;;5012040;28;20171;-71
2024/01/31 07:49:37;;;;;;;11.93;7.90;;;;;;;;;;5010324;28;20275;-71
2024/01/31 07:52:02;;;;;;;13.73;7.07;;;;;;;;;;5013681;28;20194;-71
2024/01/31 07:54:27;;;;;;;8.03;7.23;;;;;;;;;;5014481;28;20194;-71
2024/01/31 07:56:52;;;;;;;9.57;7.77;;;;;;;;;;5031704;28;20172;-71
2024/01/31 07:59:18;;;;;;;12.00;8.07;;;;;;;;;;5013309;28;20228;-71
2024/01/31 08:01:43;;;;;;;9.33;7.77;;;;;;;;;;5030778;28;20194;-71
2024/01/31 08:04:08;;;;;;;12.47;8.87;;;;;;;;;;5012302;28;20197;-71
2024/01/31 08:06:35;;;;;;;10.37;7.80;;;;;;;;;;5012741;28;20187;-71
2024/01/31 08:09:00;;;;;;;9.33;8.00;;;;;;;;;;5012937;28;20273;-71
2024/01/31 08:11:25;;;;;;;16.03;8.23;;;;;;;;;;5027788;28;20323;-72
2024/01/31 08:13:50;;;;;;;8.40;6.47;;;;;;;;;;5031299;28;20171;-71
2024/01/31 08:16:16;;;;;;;8.43;6.87;;;;;;;;;;5029641;28;20169;-71
2024/01/31 08:18:41;;;;;;;11.27;7.67;;;;;;;;;;5031230;28;20163;-71
2024/01/31 08:21:07;;;;;;;13.87;7.60;;;;;;;;;;5009708;28;20172;-71
2024/01/31 08:23:32;;;;;;;9.40;7.40;;;;;;;;;;5025169;28;20241;-71
2024/01/31 08:25:57;;;;;;;9.90;6.73;;;;;;;;;;5016001;28;20196;-71
2024/01/31 08:28:23;;;;;;;8.00;7.10;;;;;;;;;;5007856;28;20214;-71
2024/01/31 08:30:48;;;;;;;11.00;7.30;;;;;;;;;;5030171;28;20167;-71
2024/01/31 08:33:13;;;;;;;13.97;9.97;;;;;;;;;;5031709;28;20246;-72
2024/01/31 08:35:38;;;;;;;13.53;8.40;;;;;;;;;;5025355;28;20195;-71
2024/01/31 08:38:03;;;;;;;11.03;8.10;;;;;;;;;;5028993;28;20177;-71
2024/01/31 08:40:29;;;;;;;9.03;7.70;;;;;;;;;;5012936;28;20244;-71
2024/01/31 08:42:58;;;;;;;11.73;7.13;;;;;;;;;;5013424;28;20175;-71
2024/01/31 08:45:23;;;;;;;10.00;7.33;;;;;;;;;;5026548;28;20202;-71
2024/01/31 08:47:48;;;;;;;10.37;7.33;;;;;;;;;;5014234;28;20219;-72
2024/01/31 08:50:13;;;;;;;10.53;7.47;;;;;;;;;;5011684;28;20176;-71
2024/01/31 08:52:39;;;;;;;10.83;9.70;;;;;;;;;;5013373;28;20206;-71
2024/01/31 08:55:05;;;;;;;8.67;6.67;;;;;;;;;;5030722;28;20167;-71
2024/01/31 08:57:30;;;;;;;11.07;7.23;;;;;;;;;;5015458;28;20182;-71
2024/01/31 08:59:56;;;;;;;10.83;7.00;;;;;;;;;;5012201;28;20171;-71
2024/01/31 09:02:21;;;;;;;9.03;6.70;;;;;;;;;;5028145;28;20186;-71
2024/01/31 09:04:46;;;;;;;9.50;7.37;;;;;;;;;;5013708;28;20185;-72
2024/01/31 09:07:11;;;;;;;8.67;6.43;;;;;;;;;;5012805;28;20214;-71
2024/01/31 09:09:39;;;;;;;9.30;6.57;;;;;;;;;;5013027;28;20183;-72
2024/01/31 09:12:05;;;;;;;7.90;6.40;;;;;;;;;;5010611;28;20187;-72
2024/01/31 09:14:31;;;;;;;9.20;6.03;;;;;;;;;;5013017;28;20173;-71
2024/01/31 09:16:56;;;;;;;6.97;5.90;;;;;;;;;;5012492;28;20191;-71
2024/01/31 09:19:21;;;;;;;9.10;5.83;;;;;;;;;;5011909;28;20172;-71
2024/01/31 09:21:46;;;;;;;9.00;6.63;;;;;;;;;;5033925;28;20178;-72
2024/01/31 09:24:12;;;;;;;11.37;6.93;;;;;;;;;;5029632;28;20180;-71
2024/01/31 09:26:37;;;;;;;9.97;6.83;;;;;;;;;;5031172;28;20282;-71
2024/01/31 09:29:03;;;;;;;8.67;6.27;;;;;;;;;;5006528;28;20195;-71
2024/01/31 09:31:29;;;;;;;10.47;6.43;;;;;;;;;;5009723;28;20206;-71
2024/01/31 09:33:54;;;;;;;9.47;6.00;;;;;;;;;;5030413;28;20164;-71
2024/01/31 09:36:20;;;;;;;7.97;6.57;;;;;;;;;;5013260;28;20168;-71
2024/01/31 09:38:47;;;;;;;10.53;7.57;;;;;;;;;;5031607;28;20180;-71
2024/01/31 09:41:13;;;;;;;9.30;7.47;;;;;;;;;;5017731;28;20182;-71
2024/01/31 09:43:38;;;;;;;11.63;7.97;;;;;;;;;;5015939;28;20177;-71
2024/01/31 09:46:04;;;;;;;7.77;6.90;;;;;;;;;;5015799;28;20183;-71
2024/01/31 09:48:30;;;;;;;22.93;16.50;;;;;;;;;;5015731;28;20183;-72
2024/01/31 09:50:55;;;;;;;9.57;6.47;;;;;;;;;;5016281;28;20175;-72
2024/01/31 09:53:22;;;;;;;7.00;6.17;;;;;;;;;;5014776;28;20180;-71
2024/01/31 09:55:47;;;;;;;8.63;7.37;;;;;;;;;;5028649;28;20250;-71
2024/01/31 09:58:12;;;;;;;10.83;7.23;;;;;;;;;;5033255;28;20208;-71
2024/01/31 10:00:37;;;;;;;8.60;6.00;;;;;;;;;;5012464;28;20229;-71
2024/01/31 10:03:04;;;;;;;6.63;5.40;;;;;;;;;;5025621;28;20186;-71
2024/01/31 10:05:29;;;;;;;9.87;6.70;;;;;;;;;;5029078;28;20240;-72
2024/01/31 10:08:01;;;;;;;7.37;6.63;;;;;;;;;;5016072;28;20259;-71
2024/01/31 10:10:28;;;;;;;9.50;6.80;;;;;;;;;;5012399;28;20176;-71
2024/01/31 10:12:54;;;;;;;9.53;6.43;;;;;;;;;;5031928;28;20193;-71
2024/01/31 10:15:19;;;;;;;9.13;6.70;;;;;;;;;;5015285;28;20172;-71
2024/01/31 10:17:44;;;;;;;7.73;6.33;;;;;;;;;;5033806;28;20176;-72
2024/01/31 10:20:10;;;;;;;13.23;8.70;;;;;;;;;;5014798;28;20253;-71
2024/01/31 10:22:36;;;;;;;9.10;7.03;;;;;;;;;;5016182;28;20176;-71
2024/01/31 10:25:04;;;;;;;9.10;7.20;;;;;;;;;;5015852;28;20181;-72
2024/01/31 10:27:29;;;;;;;8.67;6.87;;;;;;;;;;5019437;28;20259;-71
2024/01/31 10:29:54;;;;;;;10.17;6.80;;;;;;;;;;5028291;28;20203;-71
2024/01/31 10:32:20;;;;;;;9.30;5.83;;;;;;;;;;5015375;28;20196;-72
2024/01/31 10:34:45;;;;;;;7.70;6.90;;;;;;;;;;5014527;28;20264;-71
2024/01/31 10:37:11;;;;;;;10.03;7.20;;;;;;;;;;5029193;28;20165;-72
2024/01/31 10:39:37;;;;;;;5.70;5.20;;;;;;;;;;5031628;28;20171;-71
2024/01/31 10:42:04;;;;;;;5.53;4.73;;;;;;;;;;5032539;28;20260;-71
2024/01/31 10:44:30;;;;;;;7.67;5.67;;;;;;;;;;5015639;28;20173;-71
2024/01/31 10:46:55;;;;;;;6.50;4.40;;;;;;;;;;5032284;28;20523;-72
2024/01/31 10:49:21;;;;;;;8.13;5.23;;;;;;;;;;5030159;28;20171;-72
2024/01/31 10:51:47;;;;;;;5.20;4.70;;;;;;;;;;5032728;28;20285;-71
2024/01/31 10:54:14;;;;;;;7.90;4.73;;;;;;;;;;5031651;28;20227;-71
2024/01/31 10:56:39;;;;;;;7.37;4.00;;;;;;;;;;5032867;28;20177;-71
2024/01/31 10:59:08;;;;;;;6.20;4.90;;;;;;;;;;5031788;28;20170;-71
2024/01/31 11:01:33;;;;;;;7.10;4.60;;;;;;;;;;5015017;28;20182;-72
2024/01/31 11:04:00;;;;;;;5.87;4.50;;;;;;;;;;5032736;28;20182;-72
2024/01/31 11:06:29;;;;;;;6.03;4.50;;;;;;;;;;5012176;28;20181;-71
2024/01/31 11:08:55;;;;;;;5.67;5.07;;;;;;;;;;5031874;28;20208;-72
2024/01/31 11:11:20;;;;;;;6.97;5.63;;;;;;;;;;5032695;28;20240;-72
2024/01/31 11:13:45;;;;;;;7.80;6.37;;;;;;;;;;5011488;28;20197;-71
2024/01/31 11:16:11;;;;;;;7.17;5.77;;;;;;;;;;5011165;28;20224;-72
2024/01/31 11:18:36;;;;;;;7.80;6.63;;;;;;;;;;5031609;28;20165;-71
2024/01/31 11:21:06;;;;;;;6.73;5.57;;;;;;;;;;5017403;28;20192;-72
2024/01/31 11:23:32;;;;;;;8.87;5.83;;;;;;;;;;5024195;28;20170;-71
2024/01/31 11:26:00;;;;;;;7.87;5.93;;;;;;;;;;5030558;28;20206;-71
2024/01/31 11:28:25;;;;;;;8.70;6.87;;;;;;;;;;5011871;28;20170;-71
2024/01/31 11:30:54;;;;;;;11.13;6.60;;;;;;;;;;5018336;28;20165;-72
2024/01/31 11:33:20;;;;;;;6.97;5.07;;;;;;;;;;5016058;28;20237;-72
2024/01/31 11:35:45;;;;;;;4.67;4.20;;;;;;;;;;5032222;28;20173;-72
2024/01/31 11:38:11;;;;;;;5.10;3.20;;;;;;;;;;5022614;28;20173;-72
2024/01/31 11:40:36;;;;;;;8.73;5.37;;;;;;;;;;5003372;28;20260;-72
2024/01/31 11:43:03;;;;;;;7.27;5.70;;;;;;;;;;5028765;28;20167;-71
2024/01/31 11:45:28;;;;;;;8.53;5.40;;;;;;;;;;5025340;28;20170;-72
2024/01/31 11:47:54;;;;;;;6.90;5.90;;;;;;;;;;5031940;28;20214;-71
2024/01/31 11:50:19;;;;;;;11.97;10.63;;;;;;;;;;5032186;28;20196;-72
2024/01/31 11:52:45;;;;;;;7.20;4.97;;;;;;;;;;5014298;28;20249;-72
2024/01/31 11:55:13;;;;;;;9.60;7.43;;;;;;;;;;5013767;28;20180;-71
2024/01/31 11:57:39;;;;;;;6.50;5.40;;;;;;;;;;5013843;28;20179;-71
2024/01/31 12:00:05;;;;;;;6.60;5.83;;;;;;;;;;5029908;28;20197;-71
2024/01/31 12:02:33;;;;;;;10.43;7.10;;;;;;;;;;5014168;28;20213;-71
2024/01/31 12:04:58;;;;;;;8.83;4.47;;;;;;;;;;5032444;28;20182;-71
2024/01/31 12:07:23;;;;;;;5.53;4.90;;;;;;;;;;5030606;28;20181;-71
2024/01/31 12:09:48;;;;;;;6.97;5.07;;;;;;;;;;5020516;28;20177;-71
2024/01/31 12:12:14;;;;;;;8.57;5.13;;;;;;;;;;5016183;28;20208;-72
2024/01/31 12:14:40;;;;;;;6.70;4.87;;;;;;;;;;5014144;28;20193;-72
2024/01/31 12:17:17;;;;;;;6.13;3.30;;;;;;;;;;5013349;28;20177;-72
2024/01/31 12:19:42;;;;;;;4.20;2.70;;;;;;;;;;5014571;28;20180;-71
2024/01/31 12:22:09;;;;;;;4.57;3.17;;;;;;;;;;5030887;28;20173;-71
2024/01/31 12:24:34;;;;;;;3.13;2.83;;;;;;;;;;5006197;28;20177;-71
2024/01/31 12:26:59;;;;;;;6.97;3.40;;;;;;;;;;5027421;28;20234;-71
2024/01/31 12:29:24;;;;;;;3.60;2.90;;;;;;;;;;5025841;28;20177;-71
2024/01/31 12:31:49;;;;;;;5.10;2.90;;;;;;;;;;5026195;28;20187;-71
2024/01/31 12:34:15;;;;;;;5.90;3.10;;;;;;;;;;5030226;28;20177;-71
2024/01/31 12:36:40;;;;;;;3.83;3.03;;;;;;;;;;5010050;28;20262;-72
2024/01/31 12:39:08;;;;;;;7.00;3.47;;;;;;;;;;5012529;28;20177;-72
2024/01/31 12:41:33;;;;;;;4.53;3.93;;;;;;;;;;5004186;28;20222;-72
2024/01/31 12:43:58;;;;;;;5.00;3.40;;;;;;;;;;5020970;28;20186;-71
2024/01/31 12:46:24;;;;;;;5.30;3.40;;;;;;;;;;5012842;28;20183;-71
2024/01/31 12:48:49;;;;;;;5.63;3.53;;;;;;;;;;5009144;28;20175;-71
2024/01/31 12:51:15;;;;;;;7.40;3.93;;;;;;;;;;5027652;28;20228;-71
2024/01/31 12:53:40;;;;;;;4.13;3.57;;;;;;;;;;5028914;28;20198;-71
2024/01/31 12:56:05;;;;;;;6.57;4.13;;;;;;;;;;5022809;28;20250;-72
2024/01/31 12:58:30;;;;;;;4.57;3.97;;;;;;;;;;5014298;28;20173;-72
2024/01/31 13:00:55;;;;;;;4.83;3.87;;;;;;;;;;5030132;28;20221;-71
2024/01/31 13:03:21;;;;;;;6.33;3.17;;;;;;;;;;5034641;28;20170;-71
2024/01/31 13:05:46;;;;;;;5.97;3.37;;;;;;;;;;5034876;28;20177;-72
2024/01/31 13:08:11;;;;;;;8.05;3.95;;;;;;;;;;5016726;28;20202;-71
2024/01/31 13:10:36;;;;;;;11.27;8.10;;;;;;;;;;5016526;28;20170;-72
2024/01/31 13:13:01;;;;;;;8.90;5.70;;;;;;;;;;5019788;28;20285;-72
2024/01/31 13:15:27;;;;;;;12.03;8.90;;;;;;;;;;5033200;28;20195;-71
2024/01/31 13:17:52;;;;;;;12.10;8.43;;;;;;;;;;5034466;28;20168;-72
2024/01/31 13:20:17;;;;;;;13.37;8.87;;;;;;;;;;5032862;28;20174;-71
2024/01/31 13:22:42;;;;;;;11.33;9.10;;;;;;;;;;5034442;28;20189;-71
2024/01/31 13:25:07;;;;;;;11.13;7.20;;;;;;;;;;5030248;28;20258;-71
2024/01/31 13:27:33;;;;;;;10.93;8.03;;;;;;;;;;5033499;28;20344;-72
2024/01/31 13:29:58;;;;;;;9.73;6.07;;;;;;;;;;5028119;28;20181;-71
2024/01/31 13:32:23;;;;;;;6.20;4.57;;;;;;;;;;5016309;28;20266;-71
2024/01/31 13:34:48;;;;;;;8.23;4.23;;;;;;;;;;5034307;28;20180;-72
2024/01/31 13:37:13;;;;;;;8.93;5.93;;;;;;;;;;5016128;28;20173;-71
2024/01/31 13:39:38;;;;;;;10.80;8.20;;;;;;;;;;5016450;28;20182;-71
2024/01/31 13:42:04;;;;;;;8.10;5.23;;;;;;;;;;5019355;28;20190;-71
2024/01/31 13:44:29;;;;;;;8.90;5.63;;;;;;;;;;5015443;28;20180;-71
2024/01/31 13:46:54;;;;;;;6.67;4.53;;;;;;;;;;5016920;28;20272;-72
2024/01/31 13:49:20;;;;;;;6.93;6.23;;;;;;;;;;5032266;28;20213;-72
2024/01/31 13:51:45;;;;;;;7.20;4.00;;;;;;;;;;5016013;28;20189;-71
2024/01/31 13:54:11;;;;;;;7.83;3.67;;;;;;;;;;5032908;28;20165;-71
2024/01/31 13:56:36;;;;;;;5.70;3.63;;;;;;;;;;5015999;28;20193;-72
2024/01/31 13:59:01;;;;;;;5.13;3.93;;;;;;;;;;5015649;28;20227;-71
2024/01/31 14:01:26;;;;;;;5.43;3.53;;;;;;;;;;5015408;28;20241;-71
2024/01/31 14:03:51;;;;;;;8.73;3.70;;;;;;;;;;5013313;28;20177;-71
2024/01/31 14:06:16;;;;;;;6.63;3.97;;;;;;;;;;5015692;28;20174;-71
2024/01/31 14:08:42;;;;;;;5.63;3.80;;;;;;;;;;5030119;28;20196;-71
2024/01/31 14:11:07;;;;;;;4.43;3.40;;;;;;;;;;5012470;28;20179;-72
2024/01/31 14:13:32;;;;;;;6.33;4.40;;;;;;;;;;5029859;28;20189;-72
2024/01/31 14:15:58;;;;;;;4.43;3.70;;;;;;;;;;5016681;28;20177;-72
2024/01/31 14:18:23;;;;;;;6.30;3.70;;;;;;;;;;5031403;28;20189;-71
2024/01/31 14:20:48;;;;;;;5.20;3.73;;;;;;;;;;5016702;28;20202;-71
2024/01/31 14:23:13;;;;;;;7.33;3.60;;;;;;;;;;5024479;28;20180;-72
2024/01/31 14:25:39;;;;;;;6.73;3.80;;;;;;;;;;5030361;28;20182;-71
2024/01/31 14:28:04;;;;;;;6.17;3.40;;;;;;;;;;5033235;28;20213;-71
2024/01/31 14:30:29;;;;;;;8.00;3.90;;;;;;;;;;5031937;28;20207;-72